Time;durP1;ratioP1;P1;durP2;ratioP2;P2;SDS_P1;SDS_P2;PMS_P1;PMS_P2;Temp;Humidity;BMP_temperature;BMP_pressure;BME280_temperature;BME280_humidity;BME280_pressure;Samples;Min_cycle;Max_cycle;Signal;HPM_P1;HPM_P2
2022/12/04 00:00:12;;;;;;;11.57;6.40;;;5.80;60.20;;;;;;4987925;28;20030;-79
2022/12/04 00:02:38;;;;;;;9.95;6.32;;;5.80;60.20;;;;;;4988346;28;20042;-79
2022/12/04 00:05:06;;;;;;;12.45;6.90;;;5.80;60.20;;;;;;4988070;28;20039;-79
2022/12/04 00:07:32;;;;;;;9.20;6.00;;;5.80;60.00;;;;;;4971630;28;20022;-79
2022/12/04 00:09:58;;;;;;;8.90;5.93;;;5.80;59.80;;;;;;4970141;28;20030;-79
2022/12/04 00:12:24;;;;;;;10.93;6.65;;;5.80;59.70;;;;;;4989087;28;20034;-80
2022/12/04 00:14:49;;;;;;;8.05;5.90;;;5.80;59.70;;;;;;4989196;28;20513;-79
2022/12/04 00:17:15;;;;;;;11.00;7.05;;;5.80;59.70;;;;;;4989164;28;20069;-79
2022/12/04 00:19:41;;;;;;;9.57;6.70;;;5.80;59.50;;;;;;4989228;28;20025;-78
2022/12/04 00:22:07;;;;;;;10.90;6.50;;;5.80;59.80;;;;;;4989137;28;20513;-79
2022/12/04 00:24:34;;;;;;;9.38;6.18;;;5.80;59.70;;;;;;4989600;28;20046;-79
2022/12/04 00:27:00;;;;;;;10.65;6.20;;;5.80;59.50;;;;;;4987536;28;20084;-78
2022/12/04 00:29:26;;;;;;;12.27;7.05;;;5.70;59.40;;;;;;4990920;28;20283;-79
2022/12/04 00:31:52;;;;;;;8.80;6.22;;;5.70;59.70;;;;;;4988747;28;20473;-79
2022/12/04 00:34:18;;;;;;;9.98;6.80;;;5.70;59.90;;;;;;4989139;28;20125;-79
2022/12/04 00:36:43;;;;;;;10.00;6.22;;;5.70;59.90;;;;;;4989194;28;20149;-79
2022/12/04 00:39:09;;;;;;;9.43;5.75;;;5.70;59.90;;;;;;4984261;28;20058;-78
2022/12/04 00:41:35;;;;;;;12.90;6.75;;;5.70;59.90;;;;;;4988858;28;20073;-79
2022/12/04 00:44:02;;;;;;;10.40;6.68;;;5.70;60.00;;;;;;4988518;28;20034;-78
2022/12/04 00:46:29;;;;;;;10.00;6.40;;;5.70;60.00;;;;;;4988642;28;20089;-78
2022/12/04 00:48:55;;;;;;;10.95;6.57;;;5.70;60.10;;;;;;4988386;28;20566;-78
2022/12/04 00:51:23;;;;;;;10.32;6.50;;;5.70;60.00;;;;;;4988237;28;20121;-78
2022/12/04 00:53:51;;;;;;;11.15;6.78;;;5.70;60.00;;;;;;5002066;28;20125;-79
2022/12/04 00:56:21;;;;;;;12.65;6.90;;;5.70;60.00;;;;;;4987432;28;20446;-79
2022/12/04 00:58:50;;;;;;;10.43;6.60;;;5.70;60.10;;;;;;4988135;28;20458;-79
2022/12/04 01:01:17;;;;;;;11.82;7.10;;;5.70;59.90;;;;;;4987219;28;20038;-80
2022/12/04 01:03:44;;;;;;;9.88;6.78;;;5.70;59.80;;;;;;4986641;28;20039;-78
2022/12/04 01:06:25;;;;;;;8.70;6.50;;;5.70;59.70;;;;;;5001877;28;20046;-78
2022/12/04 01:08:52;;;;;;;10.80;6.88;;;5.60;59.70;;;;;;4969582;28;20030;-79
2022/12/04 01:11:20;;;;;;;12.88;7.25;;;5.60;59.70;;;;;;4986207;28;20031;-78
2022/12/04 01:13:46;;;;;;;11.25;6.90;;;5.60;59.50;;;;;;4987511;28;20092;-79
2022/12/04 01:16:17;;;;;;;11.68;6.32;;;5.60;59.40;;;;;;4960880;28;20763;-79
2022/12/04 01:18:44;;;;;;;10.18;6.78;;;5.60;59.50;;;;;;4987101;28;20406;-78
2022/12/04 01:21:10;;;;;;;12.63;7.35;;;5.60;59.50;;;;;;4980518;28;20045;-78
2022/12/04 01:23:36;;;;;;;11.05;6.80;;;5.60;59.50;;;;;;4986151;28;20038;-78
2022/12/04 01:26:02;;;;;;;10.32;6.68;;;5.60;59.60;;;;;;4970012;28;20029;-77
2022/12/04 01:28:28;;;;;;;11.48;6.65;;;5.60;59.40;;;;;;4987588;28;20045;-78
2022/12/04 01:31:03;;;;;;;11.43;7.25;;;5.60;59.20;;;;;;4985858;28;20045;-78
2022/12/04 01:33:31;;;;;;;11.38;6.88;;;5.60;59.20;;;;;;4963856;28;20394;-78
2022/12/04 01:35:58;;;;;;;10.68;6.43;;;5.60;59.30;;;;;;4985535;28;20046;-77
2022/12/04 01:38:25;;;;;;;12.43;6.90;;;5.60;59.50;;;;;;4968479;28;20046;-77
2022/12/04 01:40:52;;;;;;;13.43;6.63;;;5.50;59.40;;;;;;5000816;28;20065;-78
2022/12/04 01:43:19;;;;;;;11.70;7.43;;;5.50;59.60;;;;;;5003294;28;20096;-77
2022/12/04 01:45:51;;;;;;;11.73;6.50;;;5.50;59.50;;;;;;5005115;28;20033;-78
2022/12/04 01:48:41;;;;;;;11.38;6.38;;;5.50;59.80;;;;;;5004508;28;20030;-77
2022/12/04 01:51:12;;;;;;;13.98;6.82;;;5.60;59.80;;;;;;4988357;28;20501;-78
2022/12/04 01:53:41;;;;;;;11.05;6.35;;;5.50;59.70;;;;;;5002893;28;20474;-77
2022/12/04 01:56:08;;;;;;;10.77;7.30;;;5.50;60.00;;;;;;5004900;28;20037;-78
2022/12/04 01:58:39;;;;;;;12.55;6.50;;;5.50;60.00;;;;;;5005530;28;20109;-77
2022/12/04 02:01:06;;;;;;;12.95;7.13;;;5.60;60.00;;;;;;5003721;28;20046;-77
2022/12/04 02:03:33;;;;;;;11.98;6.97;;;5.50;60.00;;;;;;4972186;28;20528;-77
2022/12/04 02:06:00;;;;;;;11.70;6.60;;;5.50;60.00;;;;;;5003680;28;20038;-78
2022/12/04 02:08:26;;;;;;;11.07;6.07;;;5.50;59.80;;;;;;5000404;28;20046;-78
2022/12/04 02:11:06;;;;;;;12.77;6.90;;;5.50;59.90;;;;;;5003049;28;20053;-78
2022/12/04 02:13:46;;;;;;;10.85;6.20;;;5.50;59.90;;;;;;5002146;28;20078;-77
2022/12/04 02:16:25;;;;;;;11.68;6.40;;;5.50;59.80;;;;;;5004594;28;20034;-78
2022/12/04 02:19:12;;;;;;;9.73;6.63;;;5.50;59.70;;;;;;4986626;28;20129;-77
2022/12/04 02:21:43;;;;;;;13.20;7.13;;;5.50;59.60;;;;;;4986918;28;20033;-77
2022/12/04 02:24:42;;;;;;;10.30;6.57;;;5.50;59.60;;;;;;4996167;28;20058;-78
2022/12/04 02:27:29;;;;;;;12.55;7.43;;;5.50;59.50;;;;;;4984146;28;20042;-79
2022/12/04 02:30:03;;;;;;;13.25;6.85;;;5.50;59.40;;;;;;4985308;28;20034;-78
2022/12/04 02:32:44;;;;;;;11.45;6.63;;;5.40;59.40;;;;;;5001827;28;20057;-79
2022/12/04 02:35:28;;;;;;;10.48;6.63;;;5.40;59.40;;;;;;4982891;28;20042;-78
2022/12/04 02:38:35;;;;;;;11.48;6.57;;;5.50;59.30;;;;;;4987098;28;20717;-78
2022/12/04 02:41:21;;;;;;;10.07;6.65;;;5.40;58.90;;;;;;4981745;28;20108;-78
2022/12/04 02:43:49;;;;;;;11.88;7.13;;;5.40;59.10;;;;;;5004510;28;20464;-79
2022/12/04 02:46:32;;;;;;;10.07;6.38;;;5.40;59.10;;;;;;5013491;28;20457;-78
2022/12/04 02:49:02;;;;;;;10.75;6.35;;;5.40;59.10;;;;;;4985349;28;20401;-78
2022/12/04 02:51:36;;;;;;;11.43;6.28;;;5.40;59.40;;;;;;4978389;28;20169;-78
2022/12/04 02:54:08;;;;;;;11.32;6.50;;;5.40;59.40;;;;;;5002568;28;20096;-78
2022/12/04 02:56:40;;;;;;;10.27;6.75;;;5.40;59.40;;;;;;4998952;28;20062;-78
2022/12/04 02:59:14;;;;;;;11.98;5.97;;;5.40;59.50;;;;;;4972088;28;20033;-78
2022/12/04 03:01:45;;;;;;;11.13;6.43;;;5.40;59.50;;;;;;5004568;28;20036;-78
2022/12/04 03:04:18;;;;;;;12.55;6.88;;;5.40;59.60;;;;;;5002026;28;20129;-78
2022/12/04 03:06:49;;;;;;;11.68;6.68;;;5.40;59.50;;;;;;5003119;28;20541;-78
2022/12/04 03:09:30;;;;;;;10.85;6.80;;;5.40;59.50;;;;;;5003361;28;20038;-78
2022/12/04 03:12:04;;;;;;;12.20;7.03;;;5.30;59.30;;;;;;4984145;28;20220;-78
2022/12/04 03:14:35;;;;;;;11.77;6.88;;;5.30;59.40;;;;;;4986276;28;20172;-78
2022/12/04 03:17:09;;;;;;;12.13;6.45;;;5.30;59.30;;;;;;5003758;28;20033;-78
2022/12/04 03:19:49;;;;;;;9.98;6.30;;;5.40;59.50;;;;;;5003951;28;20073;-78
2022/12/04 03:22:18;;;;;;;10.60;5.97;;;5.30;59.30;;;;;;5004646;28;20378;-77
2022/12/04 03:24:53;;;;;;;10.52;6.20;;;5.30;59.10;;;;;;4978673;28;20490;-77
2022/12/04 03:27:56;;;;;;;11.45;6.40;;;5.30;59.20;;;;;;4982329;28;20109;-79
2022/12/04 03:30:23;;;;;;;11.10;6.15;;;5.30;59.20;;;;;;4978034;28;20042;-77
2022/12/04 03:33:06;;;;;;;9.40;6.03;;;5.30;59.10;;;;;;4985082;28;20050;-80
2022/12/04 03:35:56;;;;;;;13.75;7.07;;;5.30;59.00;;;;;;4968445;28;20050;-77
2022/12/04 03:38:47;;;;;;;11.60;7.03;;;5.30;59.20;;;;;;4969067;28;20107;-77
2022/12/04 03:41:29;;;;;;;11.40;6.70;;;5.30;59.20;;;;;;4979759;28;20042;-77
2022/12/04 03:43:57;;;;;;;11.38;6.88;;;5.30;59.30;;;;;;4986250;28;20398;-78
2022/12/04 03:46:41;;;;;;;13.73;6.88;;;5.30;59.20;;;;;;4986567;28;20041;-78
2022/12/04 03:49:07;;;;;;;13.88;7.00;;;5.30;59.80;;;;;;4984661;28;20422;-78
2022/12/04 03:51:59;;;;;;;10.95;7.13;;;5.30;59.30;;;;;;4986009;28;20034;-77
2022/12/04 03:54:42;;;;;;;12.68;7.07;;;5.30;59.20;;;;;;4984388;28;20042;-77
2022/12/04 03:57:15;;;;;;;14.95;7.03;;;5.30;59.10;;;;;;4985552;28;20129;-77
2022/12/04 03:59:52;;;;;;;12.50;7.18;;;5.30;59.40;;;;;;4987047;28;20049;-78
2022/12/04 04:02:20;;;;;;;12.27;6.53;;;5.30;59.50;;;;;;4987473;28;20030;-77
2022/12/04 04:04:51;;;;;;;12.55;7.50;;;5.30;59.40;;;;;;4987915;28;20057;-78
2022/12/04 04:07:27;;;;;;;10.95;6.63;;;5.30;59.50;;;;;;4993663;28;20730;-76
2022/12/04 04:09:57;;;;;;;;;;;5.30;59.40;;;;;;4989329;28;20030;-77
2022/12/04 04:12:27;;;;;;;10.60;6.40;;;5.20;59.40;;;;;;4982090;28;19928;-77
2022/12/04 04:26:21;;;;;;;10.40;6.88;;;5.20;59.20;;;;;;4985925;28;20027;-76
2022/12/04 04:28:47;;;;;;;12.10;6.97;;;5.20;59.40;;;;;;4987960;28;20121;-77
2022/12/04 04:31:33;;;;;;;12.13;7.05;;;5.20;59.20;;;;;;4952378;28;20561;-77
2022/12/04 04:34:21;;;;;;;10.70;6.28;;;5.20;60.00;;;;;;4974731;28;20502;-77
2022/12/04 04:37:18;;;;;;;13.73;7.00;;;5.20;59.20;;;;;;4988117;28;20044;-76
2022/12/04 04:39:48;;;;;;;11.23;6.53;;;5.20;59.10;;;;;;4979981;28;20038;-77
2022/12/04 04:42:31;;;;;;;12.85;6.88;;;5.20;59.00;;;;;;4984437;28;20037;-77
2022/12/04 04:45:10;;;;;;;11.18;6.78;;;5.20;59.10;;;;;;4971906;28;20451;-77
2022/12/04 04:47:39;;;;;;;11.88;7.47;;;5.20;59.00;;;;;;5005180;28;20509;-78
2022/12/04 04:50:09;;;;;;;10.90;6.75;;;5.20;59.10;;;;;;5004916;28;20123;-78
2022/12/04 04:52:38;;;;;;;12.35;6.70;;;5.20;58.90;;;;;;5006680;28;20064;-78
2022/12/04 04:55:05;;;;;;;11.48;6.60;;;5.10;58.90;;;;;;5006647;28;20587;-78
2022/12/04 04:57:36;;;;;;;10.50;6.60;;;5.20;58.80;;;;;;4984253;28;20037;-78
2022/12/04 05:00:17;;;;;;;13.00;6.75;;;5.20;58.90;;;;;;4987527;28;20764;-78
2022/12/04 05:02:43;;;;;;;11.68;6.75;;;5.20;59.00;;;;;;4987042;28;20035;-78
2022/12/04 05:05:11;;;;;;;12.25;6.53;;;5.20;59.00;;;;;;4986318;28;20049;-78
2022/12/04 05:07:36;;;;;;;12.00;7.07;;;5.20;59.00;;;;;;4990216;28;20037;-77
2022/12/04 05:10:04;;;;;;;10.52;6.05;;;5.20;59.00;;;;;;4990095;28;20030;-76
2022/12/04 05:12:30;;;;;;;12.57;6.28;;;5.20;59.00;;;;;;4988863;28;20137;-76
2022/12/04 05:14:55;;;;;;;10.95;6.90;;;5.20;59.20;;;;;;4988969;28;20581;-76
2022/12/04 05:17:21;;;;;;;10.68;6.65;;;5.10;59.10;;;;;;4988091;28;20041;-77
2022/12/04 05:19:54;;;;;;;12.32;6.70;;;5.10;59.10;;;;;;4988023;28;20038;-77
2022/12/04 05:22:27;;;;;;;10.10;6.57;;;5.10;59.00;;;;;;4987756;28;20113;-76
2022/12/04 05:24:54;;;;;;;12.00;6.80;;;5.10;59.10;;;;;;4987183;28;20065;-78
2022/12/04 05:27:21;;;;;;;11.88;6.40;;;5.10;59.10;;;;;;4986163;28;20394;-77
2022/12/04 05:29:48;;;;;;;12.02;6.68;;;5.10;59.00;;;;;;4985213;28;20039;-76
2022/12/04 05:32:14;;;;;;;13.02;6.88;;;5.10;58.90;;;;;;4965610;28;20072;-77
2022/12/04 05:34:40;;;;;;;11.05;7.25;;;5.10;58.80;;;;;;4987310;28;20066;-77
2022/12/04 05:37:06;;;;;;;11.85;7.03;;;5.10;58.90;;;;;;5002196;28;20077;-77
2022/12/04 05:39:33;;;;;;;12.85;6.90;;;5.10;58.60;;;;;;4985565;28;20393;-78
2022/12/04 05:41:59;;;;;;;13.43;7.15;;;5.10;58.60;;;;;;4985120;28;20054;-77
2022/12/04 05:44:25;;;;;;;10.82;6.60;;;5.10;58.80;;;;;;4987972;28;20115;-77
2022/12/04 05:46:51;;;;;;;8.95;6.13;;;5.10;58.60;;;;;;4981933;28;20034;-77
2022/12/04 05:49:17;;;;;;;10.95;6.30;;;5.10;58.60;;;;;;4986810;28;20049;-77
2022/12/04 05:51:42;;;;;;;12.00;6.88;;;5.10;58.60;;;;;;4987466;28;20038;-79
2022/12/04 05:54:09;;;;;;;11.57;7.05;;;5.10;58.60;;;;;;4987329;28;20046;-78
2022/12/04 05:56:35;;;;;;;10.65;6.53;;;5.10;58.40;;;;;;4987781;28;20037;-78
2022/12/04 05:59:01;;;;;;;12.02;6.65;;;5.10;58.50;;;;;;4988010;28;20039;-77
2022/12/04 06:01:26;;;;;;;11.35;6.43;;;5.10;58.10;;;;;;4983186;28;20034;-78
2022/12/04 06:03:53;;;;;;;12.60;7.07;;;5.10;58.10;;;;;;4970053;28;20406;-78
2022/12/04 06:06:23;;;;;;;12.00;7.00;;;5.10;58.20;;;;;;4996938;28;20034;-79
2022/12/04 06:08:51;;;;;;;11.25;6.45;;;5.20;58.20;;;;;;4986689;28;20541;-79
2022/12/04 06:11:21;;;;;;;13.57;6.70;;;5.10;58.70;;;;;;4987514;28;20078;-78
2022/12/04 06:13:47;;;;;;;10.23;6.65;;;5.10;57.90;;;;;;4987203;28;20027;-78
2022/12/04 06:16:14;;;;;;;9.57;6.10;;;5.20;58.00;;;;;;4954068;28;20469;-79
2022/12/04 06:18:41;;;;;;;13.38;6.20;;;5.10;57.90;;;;;;4987109;28;20034;-79
2022/12/04 06:21:08;;;;;;;10.73;6.88;;;5.20;57.90;;;;;;4985638;28;20046;-79
2022/12/04 06:23:34;;;;;;;11.38;7.07;;;5.20;58.00;;;;;;4987170;28;20122;-79
2022/12/04 06:26:08;;;;;;;12.23;6.70;;;5.20;57.90;;;;;;4986988;28;20116;-79
2022/12/04 06:28:35;;;;;;;10.65;6.07;;;5.20;58.00;;;;;;4985322;28;20069;-79
2022/12/04 06:31:07;;;;;;;14.57;6.60;;;5.20;58.00;;;;;;4985120;28;20085;-79
2022/12/04 06:33:33;;;;;;;11.30;6.90;;;5.20;58.00;;;;;;4985840;28;20116;-79
2022/12/04 06:36:04;;;;;;;11.90;6.65;;;5.20;58.10;;;;;;4986250;28;20041;-79
2022/12/04 06:38:30;;;;;;;10.52;6.10;;;5.20;58.10;;;;;;4985718;28;20050;-79
2022/12/04 06:40:56;;;;;;;10.02;5.95;;;5.20;57.90;;;;;;4970178;28;20054;-78
2022/12/04 06:43:23;;;;;;;11.75;6.97;;;5.20;57.80;;;;;;4984170;28;20470;-79
2022/12/04 06:45:59;;;;;;;9.90;6.18;;;5.30;57.90;;;;;;4986093;28;20038;-78
2022/12/04 06:48:27;;;;;;;13.18;7.00;;;5.30;57.80;;;;;;4988307;28;20058;-78
2022/12/04 06:51:05;;;;;;;8.65;5.82;;;5.30;57.70;;;;;;4968500;28;20379;-79
2022/12/04 06:53:32;;;;;;;11.43;6.55;;;5.30;57.70;;;;;;4968685;28;20133;-79
2022/12/04 06:56:04;;;;;;;9.60;6.18;;;5.30;58.10;;;;;;4969785;28;20045;-79
2022/12/04 06:58:31;;;;;;;10.55;6.13;;;5.30;57.60;;;;;;4967729;28;20047;-78
2022/12/04 07:00:57;;;;;;;11.95;6.70;;;5.30;57.60;;;;;;4978384;28;20086;-78
2022/12/04 07:03:24;;;;;;;12.45;6.38;;;5.30;57.60;;;;;;5004767;28;20446;-78
2022/12/04 07:05:50;;;;;;;10.57;6.13;;;5.30;57.50;;;;;;4990158;28;20041;-79
2022/12/04 07:08:17;;;;;;;10.38;6.88;;;5.30;57.50;;;;;;5004556;28;20036;-78
2022/12/04 07:10:43;;;;;;;10.10;6.15;;;5.30;57.40;;;;;;5004990;28;20041;-78
2022/12/04 07:13:09;;;;;;;12.93;6.97;;;5.30;57.30;;;;;;5004301;28;20196;-78
2022/12/04 07:15:36;;;;;;;12.27;6.65;;;5.40;57.20;;;;;;5003337;28;20443;-78
2022/12/04 07:18:04;;;;;;;11.82;6.28;;;5.40;57.40;;;;;;5002318;28;20482;-78
2022/12/04 07:20:31;;;;;;;12.45;6.60;;;5.40;57.20;;;;;;5004052;28;20041;-78
2022/12/04 07:22:56;;;;;;;12.95;6.88;;;5.40;57.20;;;;;;5003433;28;20030;-78
2022/12/04 07:25:22;;;;;;;10.93;6.50;;;5.40;57.20;;;;;;5003962;28;20038;-77
2022/12/04 07:27:48;;;;;;;10.80;6.35;;;5.40;56.90;;;;;;5003837;28;20440;-79
2022/12/04 07:30:15;;;;;;;10.55;6.90;;;5.40;56.90;;;;;;5002921;28;20049;-80
2022/12/04 07:32:40;;;;;;;11.65;6.65;;;5.40;56.90;;;;;;4984602;28;20567;-80
2022/12/04 07:35:07;;;;;;;13.32;7.05;;;5.40;56.90;;;;;;5002407;28;20041;-79
2022/12/04 07:37:35;;;;;;;11.90;7.18;;;5.40;57.00;;;;;;5006696;28;20026;-80
2022/12/04 07:40:01;;;;;;;12.13;6.38;;;5.50;57.00;;;;;;5002246;28;20413;-79
2022/12/04 07:42:28;;;;;;;11.32;6.72;;;5.50;56.90;;;;;;4987674;28;20129;-78
2022/12/04 07:44:54;;;;;;;11.95;6.78;;;5.60;57.20;;;;;;4987619;28;20469;-78
2022/12/04 07:47:20;;;;;;;12.15;6.20;;;5.60;57.20;;;;;;4988358;28;20030;-77
2022/12/04 07:49:46;;;;;;;10.88;6.30;;;5.70;57.00;;;;;;4991786;28;20023;-78
2022/12/04 07:52:12;;;;;;;11.20;6.50;;;5.70;56.90;;;;;;4992854;28;20060;-78
2022/12/04 07:54:38;;;;;;;14.63;7.50;;;5.70;56.80;;;;;;4991727;28;20501;-79
2022/12/04 07:57:04;;;;;;;12.30;6.63;;;5.70;57.00;;;;;;4993203;28;20111;-78
2022/12/04 07:59:30;;;;;;;11.00;6.60;;;5.80;57.10;;;;;;4991293;28;20084;-78
2022/12/04 08:01:55;;;;;;;10.45;6.25;;;5.80;57.10;;;;;;4984655;28;20100;-80
2022/12/04 08:04:21;;;;;;;11.18;6.93;;;5.80;57.30;;;;;;4993505;28;20133;-79
2022/12/04 08:06:47;;;;;;;12.48;7.05;;;5.90;57.10;;;;;;4991908;28;20177;-82
2022/12/04 08:09:13;;;;;;;10.38;6.50;;;5.90;57.10;;;;;;4973857;28;20035;-81
2022/12/04 08:11:39;;;;;;;12.05;6.57;;;5.90;56.80;;;;;;4967975;28;20038;-82
2022/12/04 08:14:07;;;;;;;9.85;6.70;;;5.90;56.40;;;;;;4994223;28;20112;-80
2022/12/04 08:16:34;;;;;;;11.35;7.32;;;5.90;56.30;;;;;;4991301;28;20069;-83
2022/12/04 08:19:00;;;;;;;12.63;7.75;;;5.90;60.00;;;;;;5004206;28;20030;-83
2022/12/04 08:21:28;;;;;;;11.18;6.57;;;6.00;63.20;;;;;;5002709;28;20045;-83
2022/12/04 08:23:56;;;;;;;12.40;7.32;;;6.10;63.40;;;;;;4955860;28;20039;-81
2022/12/04 08:26:24;;;;;;;13.27;7.95;;;6.20;63.40;;;;;;4979204;28;20034;-82
2022/12/04 08:28:56;;;;;;;11.80;6.90;;;6.30;63.50;;;;;;4990948;28;20040;-77
2022/12/04 08:31:27;;;;;;;12.98;6.35;;;6.50;73.20;;;;;;4973519;28;20031;-74
2022/12/04 08:33:55;;;;;;;10.80;5.63;;;6.70;68.20;;;;;;4963744;28;20132;-73
2022/12/04 08:36:21;;;;;;;8.70;5.63;;;6.80;66.30;;;;;;4984472;28;20425;-73
2022/12/04 08:38:47;;;;;;;9.40;5.80;;;6.90;65.00;;;;;;4969299;28;20096;-74
2022/12/04 08:41:15;;;;;;;10.43;6.47;;;6.90;63.60;;;;;;4991621;28;20050;-74
2022/12/04 08:43:42;;;;;;;16.48;6.10;;;7.00;62.70;;;;;;4989689;28;20031;-74
2022/12/04 08:46:10;;;;;;;8.93;6.00;;;7.00;61.80;;;;;;4991637;28;20103;-74
2022/12/04 08:48:36;;;;;;;13.93;6.85;;;7.00;61.40;;;;;;5004998;28;20041;-80
2022/12/04 08:51:03;;;;;;;9.15;5.82;;;7.10;61.50;;;;;;5009284;28;20042;-77
2022/12/04 08:53:30;;;;;;;10.77;6.00;;;7.10;61.40;;;;;;5011179;28;20505;-77
2022/12/04 08:55:59;;;;;;;12.32;6.63;;;7.10;61.30;;;;;;5008312;28;20038;-77
2022/12/04 08:58:25;;;;;;;11.73;6.95;;;7.10;61.20;;;;;;5006752;28;20401;-77
2022/12/04 09:00:51;;;;;;;12.88;6.53;;;7.10;61.20;;;;;;5006494;28;20037;-78
2022/12/04 09:03:20;;;;;;;9.40;6.22;;;7.20;61.30;;;;;;5002270;28;20044;-77
2022/12/04 09:05:46;;;;;;;11.40;6.32;;;7.20;61.10;;;;;;5003156;28;20034;-77
2022/12/04 09:08:13;;;;;;;11.43;6.50;;;7.20;60.90;;;;;;5007038;28;20038;-76
2022/12/04 09:10:40;;;;;;;10.30;6.07;;;7.20;60.90;;;;;;5006310;28;20038;-76
2022/12/04 09:13:07;;;;;;;8.07;5.85;;;7.30;60.90;;;;;;5006856;28;20038;-78
2022/12/04 09:15:33;;;;;;;9.85;5.65;;;7.20;60.80;;;;;;4994024;28;20038;-77
2022/12/04 09:17:59;;;;;;;9.73;5.63;;;7.30;60.70;;;;;;4989900;28;20096;-79
2022/12/04 09:20:25;;;;;;;10.00;5.85;;;7.30;60.60;;;;;;4973912;28;20117;-78
2022/12/04 09:22:51;;;;;;;11.68;6.45;;;7.30;60.60;;;;;;4988166;28;20030;-77
2022/12/04 09:25:17;;;;;;;11.48;6.35;;;7.30;60.40;;;;;;5003944;28;20528;-76
2022/12/04 09:27:44;;;;;;;11.63;6.63;;;7.30;60.40;;;;;;5004841;28;20030;-77
2022/12/04 09:30:11;;;;;;;10.30;6.10;;;7.30;60.30;;;;;;5005532;28;20040;-76
2022/12/04 09:32:38;;;;;;;10.60;6.38;;;7.30;60.30;;;;;;5004075;28;20046;-79
2022/12/04 09:35:05;;;;;;;12.75;6.40;;;7.30;60.20;;;;;;5005041;28;20132;-76
2022/12/04 09:37:37;;;;;;;12.68;6.65;;;7.30;60.20;;;;;;5005145;28;20505;-76
2022/12/04 09:40:04;;;;;;;9.63;6.30;;;7.30;60.20;;;;;;5003111;28;20042;-76
2022/12/04 09:42:44;;;;;;;11.18;5.80;;;7.30;60.10;;;;;;5002443;28;20041;-77
2022/12/04 09:45:23;;;;;;;13.48;6.47;;;7.30;60.10;;;;;;5004443;28;20038;-77
2022/12/04 09:47:56;;;;;;;11.25;6.20;;;7.40;60.20;;;;;;4999578;28;20393;-75
2022/12/04 09:50:36;;;;;;;12.38;6.95;;;7.30;60.10;;;;;;5002545;28;20413;-75
2022/12/04 09:53:11;;;;;;;12.50;6.10;;;7.30;60.20;;;;;;4987463;28;20050;-75
2022/12/04 09:55:53;;;;;;;12.85;6.60;;;7.30;60.20;;;;;;5003917;28;20038;-77
2022/12/04 09:58:34;;;;;;;13.48;6.68;;;7.30;60.40;;;;;;4987674;28;20026;-76
2022/12/04 10:01:02;;;;;;;12.05;5.97;;;7.40;60.80;;;;;;4985285;28;20042;-76
2022/12/04 10:03:30;;;;;;;15.13;6.07;;;7.40;61.00;;;;;;4984367;28;20049;-75
2022/12/04 10:06:10;;;;;;;10.82;5.47;;;7.40;61.10;;;;;;4991041;28;20041;-76
2022/12/04 10:08:42;;;;;;;10.02;5.60;;;7.50;64.00;;;;;;4998035;28;20121;-77
2022/12/04 10:11:43;;;;;;;9.75;5.15;;;7.50;63.50;;;;;;4984751;28;20038;-81
2022/12/04 10:14:34;;;;;;;10.50;5.63;;;7.50;63.10;;;;;;4986449;28;20036;-78
2022/12/04 10:17:35;;;;;;;9.48;6.05;;;7.50;62.60;;;;;;4953184;28;20040;-77
2022/12/04 10:20:17;;;;;;;13.73;6.22;;;7.60;62.00;;;;;;5002375;28;20073;-79
2022/12/04 10:23:15;;;;;;;10.02;5.70;;;7.50;61.30;;;;;;5004624;28;20033;-84
2022/12/04 10:25:42;;;;;;;11.68;5.50;;;7.60;62.90;;;;;;5001560;28;20054;-83
2022/12/04 10:28:39;;;;;;;9.75;5.25;;;7.60;62.70;;;;;;5001911;28;20038;-81
2022/12/04 10:31:11;;;;;;;12.52;5.78;;;7.60;62.80;;;;;;4971201;28;20591;-81
2022/12/04 10:33:43;;;;;;;10.73;5.03;;;7.60;62.50;;;;;;5002760;28;20046;-82
2022/12/04 10:36:14;;;;;;;16.58;5.43;;;7.60;62.10;;;;;;5000030;28;20038;-78
2022/12/04 10:38:59;;;;;;;11.90;5.88;;;7.60;61.60;;;;;;5001144;28;20521;-82
2022/12/04 10:41:44;;;;;;;9.07;5.45;;;7.60;61.20;;;;;;4955046;28;20057;-78
2022/12/04 10:44:15;;;;;;;12.23;5.55;;;7.60;60.90;;;;;;4984647;28;20076;-82
2022/12/04 10:46:41;;;;;;;9.60;5.47;;;7.60;60.50;;;;;;4982672;28;20037;-78
2022/12/04 10:49:21;;;;;;;9.35;5.88;;;7.60;60.20;;;;;;4999152;28;20146;-77
2022/12/04 10:51:48;;;;;;;13.68;5.70;;;7.50;60.10;;;;;;4984062;28;20493;-82
2022/12/04 10:54:30;;;;;;;9.45;5.38;;;7.60;60.10;;;;;;4953561;28;20493;-81
2022/12/04 10:57:02;;;;;;;9.75;5.55;;;7.50;59.90;;;;;;4976825;28;20037;-81
2022/12/04 10:59:29;;;;;;;10.70;5.90;;;7.50;59.80;;;;;;4999466;28;20042;-83
2022/12/04 11:02:27;;;;;;;8.48;5.22;;;7.50;59.70;;;;;;4988389;28;20521;-82
2022/12/04 11:04:59;;;;;;;8.95;5.75;;;7.50;59.50;;;;;;5003989;28;20572;-78
2022/12/04 11:07:29;;;;;;;12.88;6.25;;;7.50;59.50;;;;;;5001782;28;20045;-81
2022/12/04 11:10:05;;;;;;;10.13;5.72;;;7.50;59.60;;;;;;4981863;28;20037;-78
2022/12/04 11:12:31;;;;;;;8.75;5.45;;;7.50;59.60;;;;;;4986959;28;20038;-78
2022/12/04 11:15:06;;;;;;;8.75;4.70;;;7.50;59.50;;;;;;4963269;28;20041;-78
2022/12/04 11:17:32;;;;;;;9.73;6.00;;;7.50;59.20;;;;;;4983873;28;20046;-78
2022/12/04 11:20:14;;;;;;;12.45;5.45;;;7.50;59.10;;;;;;4985969;28;20510;-78
2022/12/04 11:22:53;;;;;;;9.60;5.13;;;7.50;59.00;;;;;;5001244;28;20060;-77
2022/12/04 11:25:21;;;;;;;8.02;4.97;;;7.50;58.70;;;;;;5004249;28;20047;-80
2022/12/04 11:27:57;;;;;;;9.13;5.50;;;7.50;58.70;;;;;;4987816;28;20042;-80
2022/12/04 11:30:48;;;;;;;10.00;5.05;;;7.40;58.50;;;;;;5000976;28;20037;-80
2022/12/04 11:33:18;;;;;;;7.72;4.95;;;7.40;58.50;;;;;;5002891;28;20046;-77
2022/12/04 11:35:52;;;;;;;10.27;5.22;;;7.40;58.90;;;;;;5001931;28;20034;-78
2022/12/04 11:38:24;;;;;;;9.85;4.63;;;7.40;58.20;;;;;;4977541;28;20610;-79
2022/12/04 11:40:56;;;;;;;7.43;5.13;;;7.40;58.20;;;;;;5003768;28;20088;-80
2022/12/04 11:43:27;;;;;;;7.63;4.97;;;7.40;58.30;;;;;;4980746;28;20551;-78
2022/12/04 11:46:05;;;;;;;24.58;5.05;;;7.40;58.10;;;;;;4977796;28;20062;-81
2022/12/04 11:48:42;;;;;;;9.98;4.53;;;7.50;61.00;;;;;;4985550;28;20205;-82
2022/12/04 11:51:30;;;;;;;11.77;5.18;;;7.60;61.50;;;;;;4984247;28;20053;-83
2022/12/04 11:54:20;;;;;;;9.05;5.20;;;7.60;61.10;;;;;;4984020;28;20103;-80
2022/12/04 11:57:13;;;;;;;9.70;4.93;;;7.60;59.60;;;;;;4985543;28;20470;-82
2022/12/04 12:00:08;;;;;;;9.18;5.15;;;7.60;58.50;;;;;;4985174;28;20046;-82
2022/12/04 12:02:49;;;;;;;8.18;5.28;;;7.50;57.70;;;;;;4973693;28;20046;-81
2022/12/04 12:05:43;;;;;;;9.10;5.20;;;7.50;57.10;;;;;;4984658;28;20030;-82
2022/12/04 12:08:24;;;;;;;9.88;5.07;;;7.50;56.80;;;;;;4967840;28;20041;-82
2022/12/04 12:11:09;;;;;;;8.90;5.18;;;7.50;56.80;;;;;;4987804;28;20451;-79
2022/12/04 12:13:41;;;;;;;9.70;5.63;;;7.40;57.00;;;;;;4986298;28;20145;-80
2022/12/04 12:16:24;;;;;;;8.57;4.68;;;7.40;57.00;;;;;;4952688;28;20093;-80
2022/12/04 12:19:17;;;;;;;8.93;4.93;;;7.40;57.10;;;;;;4970767;28;20059;-81
2022/12/04 12:22:03;;;;;;;6.38;4.57;;;7.40;57.20;;;;;;4959758;28;20540;-80
2022/12/04 12:24:54;;;;;;;7.35;4.32;;;7.40;57.20;;;;;;4910177;29;20165;-80
2022/12/04 12:27:41;;;;;;;10.32;5.20;;;7.30;57.10;;;;;;4958221;28;20039;-81
2022/12/04 12:30:16;;;;;;;8.55;4.70;;;7.30;56.90;;;;;;4945366;29;20134;-79
2022/12/04 12:33:09;;;;;;;9.33;5.27;;;7.30;56.80;;;;;;4957324;28;20085;-79
2022/12/04 12:35:50;;;;;;;6.35;4.25;;;7.30;56.80;;;;;;4970628;28;20047;-80
2022/12/04 12:38:32;;;;;;;9.05;4.95;;;7.20;56.80;;;;;;4971612;28;20037;-84
2022/12/04 12:41:13;;;;;;;7.32;5.03;;;7.20;56.80;;;;;;4954890;28;20191;-84
2022/12/04 12:43:41;;;;;;;9.55;4.40;;;7.20;56.80;;;;;;4954907;28;20043;-83
2022/12/04 12:46:16;;;;;;;6.68;4.47;;;7.20;56.70;;;;;;4940627;28;20043;-82
2022/12/04 12:48:50;;;;;;;;;;;7.20;56.70;;;;;;4969803;28;20058;-83
2022/12/04 12:51:35;;;;;;;7.78;4.40;;;7.10;56.40;;;;;;4957387;28;20022;-87
2022/12/04 12:54:26;;;;;;;6.60;4.50;;;7.10;56.40;;;;;;4970331;28;20443;-84
2022/12/04 12:56:59;;;;;;;10.73;4.72;;;7.10;56.40;;;;;;4939695;28;20450;-86
2022/12/04 12:59:27;;;;;;;7.70;4.50;;;7.10;56.40;;;;;;4954687;28;20085;-82
2022/12/04 13:02:04;;;;;;;9.23;5.10;;;7.00;56.30;;;;;;4989385;28;20033;-79
2022/12/04 13:04:47;;;;;;;7.90;4.82;;;7.00;56.30;;;;;;4991819;28;20150;-79
2022/12/04 13:07:16;;;;;;;7.57;4.53;;;7.00;56.40;;;;;;5003388;28;20038;-87
2022/12/04 13:09:52;;;;;;;8.52;4.63;;;7.00;56.30;;;;;;4993316;28;20097;-84
2022/12/04 13:12:19;;;;;;;8.85;5.10;;;7.00;56.30;;;;;;5011157;28;20046;-81
2022/12/04 13:14:45;;;;;;;6.40;4.85;;;7.00;56.60;;;;;;4988891;28;20054;-83
2022/12/04 13:17:34;;;;;;;6.68;4.55;;;6.90;56.80;;;;;;4991455;28;20030;-85
2022/12/04 13:20:04;;;;;;;8.50;5.43;;;6.90;56.80;;;;;;4988189;28;20050;-81
2022/12/04 13:22:53;;;;;;;9.02;4.97;;;6.90;56.90;;;;;;4987410;28;20119;-82
2022/12/04 13:25:48;;;;;;;9.23;4.78;;;6.90;56.90;;;;;;4969866;28;20046;-78
2022/12/04 13:28:39;;;;;;;11.20;5.60;;;6.90;57.20;;;;;;4987789;28;20089;-87